createdAt,value
2022-12-19T00:00:39.565Z,5.07
2022-12-19T00:03:10.585Z,5.05
2022-12-19T00:05:40.556Z,5.07
2022-12-19T00:08:16.951Z,5.00
2022-12-19T00:10:55.741Z,5.01
2022-12-19T00:13:31.217Z,5.05
2022-12-19T00:16:05.894Z,5.08
2022-12-19T00:18:39.992Z,5.02
2022-12-19T00:21:11.551Z,4.87
2022-12-19T00:23:42.441Z,4.89
2022-12-19T00:26:13.280Z,4.71
2022-12-19T00:28:43.784Z,4.87
2022-12-19T00:31:13.431Z,4.93
2022-12-19T00:33:45.047Z,4.86
2022-12-19T00:36:15.211Z,4.85
2022-12-19T00:38:47.970Z,4.90
2022-12-19T00:41:18.703Z,4.92
2022-12-19T00:43:53.160Z,4.95
2022-12-19T00:46:23.743Z,4.84
2022-12-19T00:48:54.802Z,4.74
2022-12-19T00:51:25.460Z,4.86
2022-12-19T00:53:55.342Z,4.68
2022-12-19T00:56:25.985Z,4.80
2022-12-19T00:58:55.964Z,4.76
2022-12-19T01:01:27.205Z,4.71
2022-12-19T01:04:27.267Z,4.78
2022-12-19T01:06:48.508Z,4.76
2022-12-19T01:09:18.237Z,4.83
2022-12-19T01:12:05.915Z,4.68
2022-12-19T01:14:35.810Z,4.70
2022-12-19T01:17:05.718Z,4.68
2022-12-19T01:19:43.392Z,4.59
2022-12-19T01:22:13.574Z,4.67
2022-12-19T01:24:43.426Z,4.58
2022-12-19T01:27:13.259Z,4.70
2022-12-19T01:29:52.862Z,4.67
2022-12-19T01:32:23.461Z,4.61
2022-12-19T01:34:54.392Z,4.62
2022-12-19T01:37:24.172Z,4.64
2022-12-19T01:39:55.110Z,4.50
2022-12-19T01:42:24.829Z,4.48
2022-12-19T01:45:14.395Z,4.55
2022-12-19T01:47:47.491Z,4.66
2022-12-19T01:50:24.908Z,4.72
2022-12-19T01:52:55.105Z,4.55
2022-12-19T01:55:24.675Z,4.61
2022-12-19T01:57:54.938Z,4.61
2022-12-19T02:00:24.523Z,4.60
2022-12-19T02:02:55.426Z,4.63
2022-12-19T02:05:27.789Z,4.66
2022-12-19T02:07:57.373Z,4.67
2022-12-19T02:10:26.935Z,4.61
2022-12-19T02:12:57.027Z,4.50
2022-12-19T02:15:28.963Z,4.56
2022-12-19T02:18:04.771Z,4.53
2022-12-19T02:20:53.833Z,4.50
2022-12-19T02:23:35.231Z,4.44
2022-12-19T02:26:16.260Z,4.52
2022-12-19T02:28:56.402Z,4.48
2022-12-19T02:31:30.406Z,4.45
2022-12-19T02:34:04.448Z,4.50
2022-12-19T02:36:39.030Z,4.50
2022-12-19T02:39:12.806Z,4.54
2022-12-19T02:41:46.162Z,4.33
2022-12-19T02:44:19.289Z,4.36
2022-12-19T02:46:51.352Z,4.32
2022-12-19T02:49:24.880Z,4.38
2022-12-19T02:52:09.499Z,4.42
2022-12-19T02:54:43.537Z,4.38
2022-12-19T02:57:19.807Z,4.45
2022-12-19T02:59:57.991Z,4.56
2022-12-19T03:02:34.683Z,4.52
2022-12-19T03:05:09.733Z,4.58
2022-12-19T03:07:43.767Z,4.52
2022-12-19T03:10:18.462Z,4.50
2022-12-19T03:12:51.594Z,4.58
2022-12-19T03:15:22.135Z,4.63
2022-12-19T03:17:53.775Z,4.65
2022-12-19T03:20:25.344Z,4.66
2022-12-19T03:22:55.040Z,4.62
2022-12-19T03:25:25.646Z,4.55
2022-12-19T03:27:56.245Z,4.47
2022-12-19T03:30:25.976Z,4.40
2022-12-19T03:32:57.419Z,4.54
2022-12-19T03:35:30.122Z,4.54
2022-12-19T03:38:02.025Z,4.41
2022-12-19T03:40:33.043Z,4.41
2022-12-19T03:43:09.824Z,4.40
2022-12-19T03:45:51.031Z,4.34
2022-12-19T03:48:27.510Z,4.23
2022-12-19T03:51:02.189Z,4.40
2022-12-19T03:53:37.700Z,4.40
2022-12-19T03:56:12.651Z,4.31
2022-12-19T03:58:45.144Z,4.32
2022-12-19T04:01:15.057Z,4.36
2022-12-19T04:03:46.107Z,4.41
2022-12-19T04:06:16.131Z,4.24
2022-12-19T04:08:46.027Z,4.30
2022-12-19T04:11:18.545Z,4.30
2022-12-19T04:13:50.954Z,4.31
2022-12-19T04:16:24.451Z,4.26
2022-12-19T04:18:58.370Z,4.22
2022-12-19T04:21:31.826Z,4.33
2022-12-19T04:24:04.081Z,4.43
2022-12-19T04:26:35.084Z,4.29
2022-12-19T04:29:06.340Z,4.33
2022-12-19T04:31:36.488Z,4.47
2022-12-19T04:34:07.883Z,4.44
2022-12-19T04:36:37.546Z,4.32
2022-12-19T04:39:07.144Z,4.44
2022-12-19T04:41:36.623Z,4.45
2022-12-19T04:44:06.464Z,4.47
2022-12-19T04:46:36.293Z,4.30
2022-12-19T04:49:07.256Z,4.27
2022-12-19T04:51:36.984Z,4.21
2022-12-19T04:54:06.614Z,4.29
2022-12-19T04:56:36.245Z,4.22
2022-12-19T04:59:05.807Z,4.30
2022-12-19T05:01:35.533Z,4.22
2022-12-19T05:04:05.295Z,4.17
2022-12-19T05:06:36.306Z,4.15
2022-12-19T05:09:05.889Z,4.07
2022-12-19T05:11:36.911Z,4.15
2022-12-19T05:14:06.876Z,4.14
2022-12-19T05:16:37.173Z,4.17
2022-12-19T05:19:06.706Z,4.25
2022-12-19T05:21:37.749Z,4.17
2022-12-19T05:24:08.098Z,4.00
2022-12-19T05:26:37.709Z,4.14
2022-12-19T05:29:07.279Z,4.19
2022-12-19T05:31:36.973Z,4.09
2022-12-19T05:34:06.509Z,4.18
2022-12-19T05:36:37.578Z,4.26
2022-12-19T05:39:07.200Z,4.31
2022-12-19T05:41:36.816Z,4.27
2022-12-19T05:44:06.470Z,4.18
2022-12-19T05:46:36.102Z,4.04
2022-12-19T05:49:05.724Z,4.15
2022-12-19T05:51:35.488Z,4.24
2022-12-19T05:54:06.616Z,4.10
2022-12-19T05:56:36.422Z,4.05
2022-12-19T05:59:06.097Z,4.14
2022-12-19T06:01:36.040Z,4.09
2022-12-19T06:04:07.775Z,3.99
2022-12-19T06:06:37.588Z,4.00
2022-12-19T06:09:08.764Z,3.98
2022-12-19T06:11:38.547Z,3.95
2022-12-19T06:14:08.458Z,3.91
2022-12-19T06:16:38.663Z,3.88
2022-12-19T06:19:08.235Z,3.90
2022-12-19T06:21:45.478Z,3.98
2022-12-19T06:24:18.721Z,4.03
2022-12-19T06:26:48.389Z,4.00
2022-12-19T06:29:18.001Z,3.98
2022-12-19T06:31:48.113Z,3.86
2022-12-19T06:34:39.501Z,3.81
2022-12-19T06:37:08.516Z,3.93
2022-12-19T06:39:39.624Z,3.87
2022-12-19T06:42:23.630Z,4.03
2022-12-19T06:44:54.239Z,3.83
2022-12-19T06:47:25.343Z,3.89
2022-12-19T06:49:54.885Z,3.85
2022-12-19T06:52:24.596Z,3.69
2022-12-19T06:54:55.648Z,3.81
2022-12-19T06:57:25.339Z,3.68
2022-12-19T06:59:54.900Z,3.78
2022-12-19T07:02:28.466Z,3.77
2022-12-19T07:05:00.877Z,3.93
2022-12-19T07:07:30.792Z,3.96
2022-12-19T07:10:01.712Z,4.11
2022-12-19T07:12:32.777Z,4.06
2022-12-19T07:15:03.017Z,3.97
2022-12-19T07:17:33.445Z,3.80
2022-12-19T07:20:03.079Z,3.78
2022-12-19T07:22:34.061Z,3.92
2022-12-19T07:25:06.055Z,3.93
2022-12-19T07:27:38.042Z,3.93
2022-12-19T07:30:09.057Z,3.87
2022-12-19T07:32:39.582Z,3.84
2022-12-19T07:35:09.547Z,3.87
2022-12-19T07:37:39.226Z,4.00
2022-12-19T07:40:11.679Z,4.00
2022-12-19T07:42:41.116Z,4.00
2022-12-19T07:45:11.011Z,3.89
2022-12-19T07:47:40.801Z,3.92
2022-12-19T07:50:10.566Z,3.86
2022-12-19T07:52:40.290Z,3.96
2022-12-19T07:55:11.640Z,3.84
2022-12-19T07:57:41.357Z,3.83
2022-12-19T08:00:13.267Z,3.95
2022-12-19T08:02:43.272Z,3.98
2022-12-19T08:05:13.267Z,3.97
2022-12-19T08:07:42.993Z,3.95
2022-12-19T08:10:14.982Z,3.96
2022-12-19T08:12:45.103Z,4.01
2022-12-19T08:15:15.099Z,3.98
2022-12-19T08:17:44.998Z,3.95
2022-12-19T08:20:14.761Z,4.12
2022-12-19T08:22:44.686Z,3.98
2022-12-19T08:25:15.710Z,4.00
2022-12-19T08:27:45.437Z,3.90
2022-12-19T08:30:15.306Z,4.01
2022-12-19T08:32:45.939Z,3.97
2022-12-19T08:35:15.472Z,3.95
2022-12-19T08:37:45.027Z,3.93
2022-12-19T08:40:15.997Z,4.04
2022-12-19T08:42:45.546Z,4.04
2022-12-19T08:45:15.318Z,3.98
2022-12-19T08:47:45.063Z,4.06
2022-12-19T08:50:15.251Z,3.84
2022-12-19T08:52:45.072Z,3.90
2022-12-19T08:55:16.294Z,3.87
2022-12-19T08:57:46.012Z,4.06
2022-12-19T09:00:16.320Z,3.97
2022-12-19T09:02:47.544Z,3.97
2022-12-19T09:06:03.977Z,4.05
2022-12-19T09:08:07.379Z,3.95
2022-12-19T09:10:38.675Z,3.90
2022-12-19T09:13:08.894Z,4.05
2022-12-19T09:15:39.480Z,3.91
2022-12-19T09:18:10.947Z,4.07
2022-12-19T09:20:40.439Z,4.16
2022-12-19T09:23:09.950Z,4.11
2022-12-19T09:25:41.345Z,4.00
2022-12-19T09:28:27.440Z,4.13
2022-12-19T09:30:57.797Z,3.94
2022-12-19T09:33:27.783Z,4.00
2022-12-19T09:35:57.680Z,3.91
2022-12-19T09:38:28.023Z,4.03
2022-12-19T09:41:07.396Z,4.02
2022-12-19T09:43:48.873Z,3.90
2022-12-19T09:46:19.370Z,4.07
2022-12-19T09:48:54.619Z,3.97
2022-12-19T09:51:31.964Z,3.98
2022-12-19T09:54:06.883Z,4.08
2022-12-19T09:56:45.576Z,4.10
2022-12-19T09:59:22.547Z,4.11
2022-12-19T10:01:57.975Z,4.07
2022-12-19T10:04:29.458Z,4.01
2022-12-19T10:07:22.272Z,4.14
2022-12-19T10:12:36.082Z,4.23
2022-12-19T10:12:52.838Z,4.08
2022-12-19T10:15:28.440Z,4.19
2022-12-19T10:18:13.002Z,4.27
2022-12-19T10:20:43.524Z,4.25
2022-12-19T10:23:32.375Z,4.39
2022-12-19T10:26:04.756Z,4.29
2022-12-19T10:28:43.752Z,4.09
2022-12-19T10:31:22.108Z,4.20
2022-12-19T10:33:57.082Z,4.27
2022-12-19T10:36:55.899Z,4.21
2022-12-19T10:39:22.417Z,4.23
2022-12-19T10:41:56.277Z,4.21
2022-12-19T10:44:30.141Z,4.31
2022-12-19T10:47:00.224Z,4.19
2022-12-19T10:49:30.958Z,4.26
2022-12-19T10:52:02.121Z,4.34
2022-12-19T10:54:41.976Z,4.46
2022-12-19T10:57:24.204Z,4.46
2022-12-19T11:00:00.002Z,4.59
2022-12-19T11:02:40.944Z,4.62
2022-12-19T11:05:23.246Z,4.43
2022-12-19T11:08:03.195Z,4.66
2022-12-19T11:11:51.226Z,4.67
2022-12-19T11:18:52.027Z,4.71
2022-12-19T11:20:40.373Z,4.76
2022-12-19T11:27:31.764Z,4.60
2022-12-19T11:29:37.048Z,4.63
2022-12-19T11:29:45.794Z,4.50
2022-12-19T11:30:43.941Z,4.60
2022-12-19T11:32:32.207Z,4.55
2022-12-19T11:34:17.122Z,4.36
2022-12-19T11:36:53.175Z,4.34
2022-12-19T11:39:24.986Z,4.50
2022-12-19T11:42:00.856Z,4.63
2022-12-19T11:44:33.721Z,4.45
2022-12-19T11:47:06.860Z,4.31
2022-12-19T11:49:40.555Z,4.50
2022-12-19T11:52:54.106Z,4.40
2022-12-19T11:55:15.774Z,4.35
2022-12-19T11:57:46.001Z,4.38
2022-12-19T12:00:17.689Z,4.46
2022-12-19T12:03:02.827Z,4.61
2022-12-19T12:05:43.051Z,4.70
2022-12-19T12:09:56.062Z,4.63
2022-12-19T12:18:13.638Z,4.62
2022-12-19T12:23:13.242Z,4.67
2022-12-19T12:30:05.526Z,4.62
2022-12-19T12:31:02.047Z,4.35
2022-12-19T12:31:44.729Z,4.32
2022-12-19T12:31:58.822Z,4.55
2022-12-19T12:32:03.187Z,4.50
2022-12-19T12:35:50.920Z,4.24
2022-12-19T12:36:56.063Z,4.23
2022-12-19T12:38:21.508Z,4.17
2022-12-19T12:40:59.657Z,4.06
2022-12-19T12:43:37.915Z,4.05
2022-12-19T12:46:13.283Z,3.93
2022-12-19T12:48:45.008Z,3.87
2022-12-19T12:51:14.889Z,3.78
2022-12-19T12:53:46.290Z,3.82
2022-12-19T12:56:18.808Z,3.82
2022-12-19T12:59:03.215Z,3.85
2022-12-19T13:01:37.491Z,3.75
2022-12-19T13:04:19.262Z,3.68
2022-12-19T13:07:07.392Z,3.66
2022-12-19T13:09:37.643Z,3.77
2022-12-19T13:12:33.995Z,3.74
2022-12-19T13:15:19.597Z,3.75
2022-12-19T13:18:03.155Z,3.81
2022-12-19T13:20:43.935Z,3.82
2022-12-19T13:23:31.510Z,3.87
2022-12-19T13:26:01.065Z,3.88
2022-12-19T13:28:40.027Z,3.80
2022-12-19T13:31:20.372Z,3.80
2022-12-19T13:34:09.878Z,3.74
2022-12-19T13:39:54.015Z,3.62
2022-12-19T13:39:59.623Z,3.55
2022-12-19T13:42:45.874Z,3.69
2022-12-19T13:45:24.002Z,3.57
2022-12-19T13:47:55.914Z,3.48
2022-12-19T13:50:27.351Z,3.50
2022-12-19T13:52:56.958Z,3.58
2022-12-19T13:55:28.983Z,3.68
2022-12-19T13:57:58.914Z,3.56
2022-12-19T14:00:35.643Z,3.56
2022-12-19T14:03:05.765Z,3.63
2022-12-19T14:06:17.313Z,3.64
2022-12-19T14:08:29.620Z,3.59
2022-12-19T14:11:40.230Z,3.53
2022-12-19T14:14:16.460Z,3.62
2022-12-19T14:16:51.928Z,3.51
2022-12-19T14:19:22.908Z,3.57
2022-12-19T14:22:07.203Z,3.46
2022-12-19T14:24:42.857Z,3.58
2022-12-19T14:28:20.448Z,3.54
2022-12-19T14:30:28.056Z,3.42
2022-12-19T14:33:43.819Z,3.39
2022-12-19T14:36:16.018Z,3.39
2022-12-19T14:39:25.840Z,3.35
2022-12-19T14:42:11.523Z,3.33
2022-12-19T14:53:52.385Z,3.31
2022-12-19T14:54:03.653Z,3.17
2022-12-19T14:54:13.937Z,2.96
2022-12-19T14:54:30.496Z,3.04
2022-12-19T14:59:03.750Z,3.07
2022-12-19T15:01:34.868Z,2.96
2022-12-19T15:04:47.706Z,2.90
2022-12-19T15:07:09.396Z,2.86
2022-12-19T15:11:06.973Z,2.68
2022-12-19T15:14:51.086Z,2.83
2022-12-19T15:15:59.190Z,2.60
2022-12-19T15:18:34.931Z,2.74
2022-12-19T15:21:06.032Z,2.74
2022-12-19T15:23:37.236Z,2.73
2022-12-19T15:26:08.841Z,2.73
2022-12-19T15:28:40.223Z,2.60
2022-12-19T15:31:13.928Z,2.60
2022-12-19T15:34:06.563Z,2.64
2022-12-19T15:36:33.149Z,2.54
2022-12-19T15:39:04.842Z,2.50
2022-12-19T15:41:34.738Z,2.57
2022-12-19T15:44:08.199Z,2.54
2022-12-19T15:46:44.550Z,2.51
2022-12-19T15:49:18.621Z,2.49
2022-12-19T15:51:49.022Z,2.39
2022-12-19T15:57:15.541Z,2.39
2022-12-19T15:59:46.142Z,2.36
2022-12-19T16:02:18.211Z,2.31
2022-12-19T16:04:48.971Z,2.37
2022-12-19T16:07:19.573Z,2.37
2022-12-19T16:09:50.835Z,2.44
2022-12-19T16:12:22.981Z,2.32
2022-12-19T16:14:56.814Z,2.10
2022-12-19T16:17:28.189Z,2.20
2022-12-19T16:19:58.024Z,2.03
2022-12-19T16:22:28.604Z,2.20
2022-12-19T16:25:01.800Z,2.24
2022-12-19T16:27:32.224Z,2.04
2022-12-19T16:30:04.795Z,2.11
2022-12-19T16:32:34.301Z,2.26
2022-12-19T16:35:07.364Z,2.23
2022-12-19T16:37:36.900Z,2.24
2022-12-19T16:40:09.249Z,2.24
2022-12-19T16:42:39.460Z,2.07
2022-12-19T16:45:16.611Z,2.09
2022-12-19T16:47:47.325Z,2.14
2022-12-19T16:50:18.962Z,2.15
2022-12-19T16:52:48.546Z,2.10
2022-12-19T16:55:19.873Z,2.12
2022-12-19T16:57:50.645Z,2.04
2022-12-19T17:00:22.077Z,2.04
2022-12-19T17:02:53.342Z,1.76
2022-12-19T17:05:24.480Z,1.92
2022-12-19T17:07:54.491Z,1.97
2022-12-19T17:10:29.271Z,1.98
2022-12-19T17:13:00.310Z,1.80
2022-12-19T17:15:31.858Z,1.77
2022-12-19T17:18:03.868Z,1.88
2022-12-19T17:20:36.549Z,1.86
2022-12-19T17:23:11.651Z,1.65
2022-12-19T17:25:42.873Z,1.62
2022-12-19T17:28:12.750Z,1.82
2022-12-19T17:30:43.469Z,1.76
2022-12-19T17:33:15.509Z,1.66
2022-12-19T17:35:45.338Z,1.75
2022-12-19T17:38:16.211Z,1.81
2022-12-19T17:40:47.356Z,1.70
2022-12-19T17:43:16.855Z,1.78
2022-12-19T17:45:46.624Z,1.80
2022-12-19T17:48:22.410Z,1.82
2022-12-19T17:50:52.192Z,1.74
2022-12-19T17:53:21.719Z,1.81
2022-12-19T17:55:52.686Z,1.72
2022-12-19T17:58:22.722Z,1.52
2022-12-19T18:00:52.646Z,1.68
2022-12-19T18:03:23.960Z,1.48
2022-12-19T18:05:54.863Z,1.59
2022-12-19T18:08:26.467Z,1.63
2022-12-19T18:10:58.125Z,1.60
2022-12-19T18:13:29.235Z,1.66
2022-12-19T18:16:00.574Z,1.74
2022-12-19T18:18:31.466Z,1.64
2022-12-19T18:21:01.693Z,1.54
2022-12-19T18:23:31.744Z,1.53
2022-12-19T18:26:03.165Z,1.52
2022-12-19T18:28:32.814Z,1.59
2022-12-19T18:31:04.207Z,1.46
2022-12-19T18:33:36.290Z,1.49
2022-12-19T18:36:06.949Z,1.58
2022-12-19T18:38:36.508Z,1.50
2022-12-19T18:41:10.699Z,1.43
2022-12-19T18:43:40.425Z,1.34
2022-12-19T18:46:12.168Z,1.30
2022-12-19T18:48:42.330Z,1.15
2022-12-19T18:51:15.080Z,1.32
2022-12-19T18:53:45.498Z,1.24
2022-12-19T18:56:16.792Z,1.31
2022-12-19T18:58:46.715Z,1.12
2022-12-19T19:01:17.620Z,1.21
2022-12-19T19:03:50.381Z,1.21
2022-12-19T19:06:22.077Z,1.07
2022-12-19T19:08:52.095Z,0.98
2022-12-19T19:11:23.577Z,1.14
2022-12-19T19:13:54.196Z,1.17
2022-12-19T19:16:25.774Z,1.04
2022-12-19T19:18:56.443Z,1.07
2022-12-19T19:21:27.454Z,1.09
2022-12-19T19:24:00.832Z,1.11
2022-12-19T19:26:32.213Z,1.10
2022-12-19T19:29:01.773Z,1.08
2022-12-19T19:31:33.382Z,1.06
2022-12-19T19:34:07.338Z,1.10
2022-12-19T19:36:38.033Z,1.19
2022-12-19T19:39:07.768Z,1.11
2022-12-19T19:41:39.042Z,0.96
2022-12-19T19:44:08.661Z,0.98
2022-12-19T19:46:38.518Z,0.97
2022-12-19T19:49:08.194Z,1.00
2022-12-19T19:51:37.810Z,0.95
2022-12-19T19:54:07.421Z,0.89
2022-12-19T19:56:37.048Z,0.76
2022-12-19T19:59:08.418Z,0.73
2022-12-19T20:01:38.079Z,0.79
2022-12-19T20:04:08.106Z,0.84
2022-12-19T20:06:37.767Z,0.72
2022-12-19T20:09:07.391Z,0.64
2022-12-19T20:11:37.018Z,0.71
2022-12-19T20:14:08.374Z,0.73
2022-12-19T20:16:38.817Z,0.68
2022-12-19T20:19:08.647Z,0.63
2022-12-19T20:21:38.370Z,0.68
2022-12-19T20:24:08.351Z,0.59
2022-12-19T20:26:38.105Z,0.33
2022-12-19T20:29:11.474Z,0.52
2022-12-19T20:31:44.210Z,0.56
2022-12-19T20:34:13.800Z,0.68
2022-12-19T20:36:43.956Z,0.51
2022-12-19T20:39:13.553Z,0.62
2022-12-19T20:41:43.512Z,0.54
2022-12-19T20:44:17.588Z,0.59
2022-12-19T20:46:51.779Z,0.61
2022-12-19T20:49:21.613Z,0.54
2022-12-19T20:51:51.207Z,0.60
2022-12-19T20:54:20.897Z,0.62
2022-12-19T20:56:50.739Z,0.72
2022-12-19T20:59:21.719Z,0.48
2022-12-19T21:01:51.447Z,-0.02
2022-12-19T21:04:21.582Z,0.13
2022-12-19T21:06:51.324Z,-0.10
2022-12-19T21:09:20.850Z,-0.01
2022-12-19T21:11:51.574Z,0.11
2022-12-19T21:14:22.923Z,0.25
2022-12-19T21:16:52.898Z,0.32
2022-12-19T21:19:22.507Z,0.29
2022-12-19T21:21:52.051Z,0.33
2022-12-19T21:24:22.033Z,0.33
2022-12-19T21:26:57.725Z,0.06
2022-12-19T21:29:29.184Z,0.13
2022-12-19T21:31:58.968Z,0.13
2022-12-19T21:34:28.862Z,0.34
2022-12-19T21:36:58.459Z,0.38
2022-12-19T21:39:28.387Z,0.45
2022-12-19T21:41:58.122Z,0.05
2022-12-19T21:44:29.361Z,-0.08
2022-12-19T21:46:59.005Z,-0.05
2022-12-19T21:49:28.759Z,-0.31
2022-12-19T21:51:58.320Z,-0.30
2022-12-19T21:54:28.135Z,-0.22
2022-12-19T21:56:57.733Z,-0.22
2022-12-19T21:59:27.370Z,-0.26
2022-12-19T22:01:58.772Z,-0.25
2022-12-19T22:04:28.592Z,-0.21
2022-12-19T22:06:58.270Z,-0.25
2022-12-19T22:09:28.248Z,-0.47
2022-12-19T22:11:58.307Z,-0.32
2022-12-19T22:14:28.708Z,-0.19
2022-12-19T22:17:00.300Z,-0.34
2022-12-19T22:19:30.032Z,-0.66
2022-12-19T22:21:59.614Z,-0.51
2022-12-19T22:24:29.265Z,-0.44
2022-12-19T22:26:58.846Z,-0.48
2022-12-19T22:29:28.414Z,-0.51
2022-12-19T22:31:58.048Z,-0.51
2022-12-19T22:34:33.806Z,-0.48
2022-12-19T22:37:03.469Z,-0.73
2022-12-19T22:39:33.155Z,-0.75
2022-12-19T22:42:02.964Z,-0.80
2022-12-19T22:44:32.595Z,-0.92
2022-12-19T22:47:02.292Z,-0.98
2022-12-19T22:49:33.289Z,-0.99
2022-12-19T22:52:02.950Z,-1.01
2022-12-19T22:54:32.680Z,-1.05
2022-12-19T22:57:02.344Z,-1.15
2022-12-19T22:59:31.894Z,-1.20
2022-12-19T23:02:01.762Z,-1.27
2022-12-19T23:04:31.426Z,-1.30
2022-12-19T23:07:02.497Z,-1.28
2022-12-19T23:09:32.131Z,-1.36
2022-12-19T23:12:02.250Z,-1.44
2022-12-19T23:14:32.327Z,-1.36
2022-12-19T23:17:02.764Z,-1.30
2022-12-19T23:19:33.856Z,-1.34
2022-12-19T23:22:04.781Z,-1.40
2022-12-19T23:24:34.474Z,-1.56
2022-12-19T23:27:04.077Z,-1.48
2022-12-19T23:29:33.669Z,-1.52
2022-12-19T23:32:03.479Z,-1.54
2022-12-19T23:34:33.076Z,-1.50
2022-12-19T23:37:12.440Z,-1.43
2022-12-19T23:39:42.379Z,-1.21
2022-12-19T23:42:12.084Z,-1.26
2022-12-19T23:44:41.750Z,-1.20
2022-12-19T23:47:11.390Z,-1.36
2022-12-19T23:49:41.402Z,-1.10
2022-12-19T23:52:12.871Z,-1.12
2022-12-19T23:54:42.363Z,-1.19
2022-12-19T23:57:11.958Z,-1.14
2022-12-19T23:59:41.509Z,-1.25
